Stanchfield, Minnesota
Current Conditions -  °F | °C
As of 6:15 AM on Wednesday 28 Jan 2015 (Local Time) from KCBG Reporting Station
Overcast Overcast  
Wind Chill: 23°   Ceiling: 900
Heat Index: 30°   Visibility: 10mi
Dew Point: 23°   Wind: 7mph
Humidity: 75%   Direction: 140°SE
Pressure: 29.99"   Gusts: NA
Location:  45.67°N, 93.18°W
Report Text: KCBG 281215Z AUTO 14006KT 10SM OVC009 M01/M05 A2999 RMK AO2
Loading
Personal Weather Stations






























Interactive Weather Map New forecast layout! Learn more

10-Day Weather Forecast

Advertisements
Track Severe Weather on mobile